createdAt,value
2023-04-14T03:59:05.077Z,20.10
2023-04-14T04:00:05.030Z,20.08
2023-04-14T04:01:05.052Z,20.05
2023-04-14T04:02:05.128Z,20.11
2023-04-14T04:03:05.241Z,20.07
2023-04-14T04:04:05.118Z,20.12
2023-04-14T04:05:05.180Z,20.19
2023-04-14T04:06:04.986Z,20.12
2023-04-14T04:07:05.021Z,20.18
2023-04-14T04:08:04.995Z,20.18
2023-04-14T04:09:04.964Z,20.16
2023-04-14T04:10:04.978Z,20.18
2023-04-14T04:11:05.303Z,20.18
2023-04-14T04:12:04.953Z,20.12
2023-04-14T04:13:04.938Z,20.25
2023-04-14T04:14:04.943Z,20.18
2023-04-14T04:15:04.966Z,20.19
2023-04-14T04:16:04.996Z,20.30
2023-04-14T04:17:04.938Z,20.32
2023-04-14T04:18:04.911Z,20.30
2023-04-14T04:19:04.913Z,20.27
2023-04-14T04:20:06.814Z,20.29
2023-04-14T04:21:04.901Z,20.25
2023-04-14T04:22:04.931Z,20.38
2023-04-14T04:23:04.904Z,20.38
2023-04-14T04:24:04.896Z,20.37
2023-04-14T04:25:04.898Z,20.44
2023-04-14T04:26:04.890Z,20.35
2023-04-14T04:27:07.877Z,20.48
2023-04-14T04:28:04.871Z,20.42
2023-04-14T04:29:04.861Z,20.34
2023-04-14T04:30:04.897Z,20.40
2023-04-14T04:31:04.890Z,20.38
2023-04-14T04:32:04.887Z,20.41
2023-04-14T04:33:04.859Z,20.49
2023-04-14T04:34:04.864Z,20.48
2023-04-14T04:35:04.850Z,20.51
2023-04-14T04:36:04.857Z,20.53
2023-04-14T04:37:04.831Z,20.56
2023-04-14T04:38:04.821Z,20.51
2023-04-14T04:39:04.816Z,20.57
2023-04-14T04:40:04.822Z,20.57
2023-04-14T04:41:04.837Z,20.58
2023-04-14T04:42:04.812Z,20.57
2023-04-14T04:43:04.792Z,20.64
2023-04-14T04:44:04.810Z,20.61
2023-04-14T04:45:04.821Z,20.72
2023-04-14T04:46:04.846Z,20.67
2023-04-14T04:47:04.808Z,20.72
2023-04-14T04:48:04.844Z,20.68
2023-04-14T04:49:04.787Z,20.75
2023-04-14T04:50:04.774Z,20.72
2023-04-14T04:51:04.766Z,20.81
2023-04-14T04:52:04.766Z,20.71
2023-04-14T04:53:04.770Z,20.76
2023-04-14T04:54:04.771Z,20.81
2023-04-14T04:55:04.751Z,20.76
2023-04-14T04:56:04.743Z,20.85
2023-04-14T04:57:04.750Z,20.85
2023-04-14T04:58:04.739Z,20.86
2023-04-14T04:59:04.739Z,20.82
2023-04-14T05:00:04.749Z,20.76
2023-04-14T05:01:04.772Z,20.81
2023-04-14T05:02:04.788Z,20.88
2023-04-14T05:03:04.797Z,20.93
2023-04-14T05:04:04.749Z,20.94
2023-04-14T05:05:04.741Z,20.88
2023-04-14T05:06:04.716Z,20.90
2023-04-14T05:07:04.716Z,20.93
2023-04-14T05:08:04.727Z,20.88
2023-04-14T05:09:04.715Z,20.90
2023-04-14T05:10:04.720Z,21.01
2023-04-14T05:11:04.718Z,21.06
2023-04-14T05:12:04.693Z,20.96
2023-04-14T05:13:04.724Z,21.01
2023-04-14T05:14:04.680Z,21.00
2023-04-14T05:15:04.667Z,21.00
2023-04-14T05:16:04.756Z,21.06
2023-04-14T05:17:04.673Z,21.08
2023-04-14T05:18:04.746Z,20.94
2023-04-14T05:19:04.689Z,21.04
2023-04-14T05:20:04.657Z,21.04
2023-04-14T05:21:04.676Z,21.08
2023-04-14T05:22:04.660Z,21.12
2023-04-14T05:23:04.666Z,21.01
2023-04-14T05:24:04.636Z,21.15
2023-04-14T05:25:04.633Z,21.11
2023-04-14T05:26:26.893Z,21.11
2023-04-14T05:27:12.997Z,21.18
2023-04-14T05:28:04.633Z,21.18
2023-04-14T05:29:04.652Z,21.12
2023-04-14T05:30:04.667Z,21.19
2023-04-14T05:31:04.637Z,21.22
2023-04-14T05:32:04.620Z,21.22
2023-04-14T05:33:04.705Z,21.27
2023-04-14T05:34:04.612Z,21.25
2023-04-14T05:35:04.638Z,21.28
2023-04-14T05:36:04.588Z,21.27
2023-04-14T05:37:04.584Z,21.27
2023-04-14T05:38:04.615Z,21.37
2023-04-14T05:39:04.619Z,21.31
2023-04-14T05:40:04.621Z,21.36
2023-04-14T05:41:04.572Z,21.37
2023-04-14T05:42:04.618Z,21.33
2023-04-14T05:43:04.574Z,21.41
2023-04-14T05:44:04.876Z,21.40
2023-04-14T05:45:04.555Z,21.36
2023-04-14T05:46:04.815Z,21.45
2023-04-14T05:47:05.471Z,21.46
2023-04-14T05:48:05.420Z,21.53
2023-04-14T05:49:04.558Z,21.51
2023-04-14T05:50:04.596Z,21.51
2023-04-14T05:51:04.607Z,21.59
2023-04-14T05:52:04.613Z,21.51
2023-04-14T05:53:04.548Z,21.55
2023-04-14T05:54:04.666Z,21.55
2023-04-14T05:55:04.535Z,21.62
2023-04-14T05:56:04.521Z,21.62
2023-04-14T05:57:04.560Z,21.66
2023-04-14T05:58:05.428Z,21.68
2023-04-14T05:59:04.546Z,21.74
2023-04-14T06:00:04.550Z,21.76
2023-04-14T06:01:04.557Z,21.82
2023-04-14T06:02:05.023Z,21.82
2023-04-14T06:03:04.710Z,21.77
2023-04-14T06:04:05.783Z,21.80
2023-04-14T06:05:04.630Z,21.82
2023-04-14T06:06:04.534Z,21.85
2023-04-14T06:07:04.526Z,21.94
2023-04-14T06:08:04.575Z,21.94
2023-04-14T06:09:06.412Z,21.96
2023-04-14T06:10:04.487Z,21.94
2023-04-14T06:11:04.551Z,21.96
2023-04-14T06:12:04.605Z,22.11
2023-04-14T06:13:04.507Z,22.12
2023-04-14T06:14:04.470Z,22.12
2023-04-14T06:15:04.488Z,22.12
2023-04-14T06:16:04.495Z,22.15
2023-04-14T06:17:04.449Z,22.26
2023-04-14T06:18:04.971Z,22.09
2023-04-14T06:19:05.408Z,22.11
2023-04-14T06:20:04.466Z,22.22
2023-04-14T06:21:04.487Z,22.20
2023-04-14T06:24:37.138Z,22.31
2023-04-14T06:25:37.060Z,22.34
2023-04-14T06:26:37.042Z,22.36
2023-04-14T06:27:37.043Z,22.42
2023-04-14T06:28:37.103Z,22.39
2023-04-14T06:29:37.088Z,22.49
2023-04-14T06:30:37.023Z,22.42
2023-04-14T06:31:37.042Z,22.44
2023-04-14T06:32:37.075Z,22.48
2023-04-14T06:33:37.038Z,22.52
2023-04-14T06:34:38.169Z,22.55
2023-04-14T06:35:37.022Z,22.61
2023-04-14T06:36:37.009Z,22.61
2023-04-14T06:37:37.030Z,22.61
2023-04-14T06:38:37.111Z,22.64
2023-04-14T06:39:37.040Z,22.73
2023-04-14T06:40:37.046Z,22.70
2023-04-14T06:41:37.028Z,22.71
2023-04-14T06:42:36.989Z,22.84
2023-04-14T06:43:37.028Z,22.75
2023-04-14T06:44:36.966Z,22.85
2023-04-14T06:45:37.071Z,22.88
2023-04-14T06:46:37.765Z,22.91
2023-04-14T06:47:37.059Z,22.96
2023-04-14T06:48:36.976Z,22.96
2023-04-14T06:49:36.988Z,22.96
2023-04-14T06:50:36.976Z,23.03
2023-04-14T06:51:36.982Z,23.00
2023-04-14T06:52:36.951Z,23.00
2023-04-14T06:53:36.949Z,23.06
2023-04-14T06:54:36.982Z,23.06
2023-04-14T06:55:37.369Z,23.09
2023-04-14T06:56:36.978Z,23.09
2023-04-14T06:57:36.978Z,23.04
2023-04-14T06:58:37.037Z,23.14
2023-04-14T06:59:36.937Z,23.24
2023-04-14T07:00:36.965Z,23.24
2023-04-14T07:01:36.959Z,23.21
2023-04-14T07:02:37.152Z,23.26
2023-04-14T07:03:37.102Z,23.34
2023-04-14T07:04:36.977Z,23.41
2023-04-14T07:05:36.926Z,23.38
2023-04-14T07:06:36.931Z,23.41
2023-04-14T07:07:36.914Z,23.42
2023-04-14T07:08:36.929Z,23.47
2023-04-14T07:09:36.932Z,23.48
2023-04-14T07:10:36.961Z,23.48
2023-04-14T07:11:37.088Z,23.52
2023-04-14T07:12:36.920Z,23.59
2023-04-14T07:13:36.934Z,23.59
2023-04-14T07:14:36.919Z,23.67
2023-04-14T07:15:36.935Z,23.72
2023-04-14T07:16:36.895Z,23.66
2023-04-14T07:17:36.928Z,23.75
2023-04-14T07:18:36.912Z,23.78
2023-04-14T07:19:36.910Z,23.79
2023-04-14T07:20:36.922Z,23.79
2023-04-14T07:21:36.894Z,23.78
2023-04-14T07:22:36.914Z,23.87
2023-04-14T07:23:36.931Z,23.89
2023-04-14T07:24:36.907Z,23.99
2023-04-14T07:25:36.900Z,23.93
2023-04-14T07:26:36.901Z,24.00
2023-04-14T07:27:36.905Z,23.97
2023-04-14T07:28:37.053Z,23.97
2023-04-14T07:29:37.625Z,24.07
2023-04-14T07:30:36.933Z,24.04
2023-04-14T07:31:37.055Z,24.09
2023-04-14T07:32:36.939Z,24.09
2023-04-14T07:33:36.912Z,24.17
2023-04-14T07:34:36.895Z,24.24
2023-04-14T07:35:36.880Z,24.17
2023-04-14T07:36:36.890Z,24.19
2023-04-14T07:37:36.886Z,24.29
2023-04-14T07:38:36.944Z,24.19
2023-04-14T07:39:36.920Z,24.24
2023-04-14T07:40:38.370Z,24.33
2023-04-14T07:41:36.924Z,24.32
2023-04-14T07:42:36.876Z,24.40
2023-04-14T07:43:36.919Z,24.37
2023-04-14T07:44:36.935Z,24.46
2023-04-14T07:45:36.887Z,24.46
2023-04-14T07:46:36.972Z,24.48
2023-04-14T07:47:36.948Z,24.46
2023-04-14T07:48:36.860Z,24.48
2023-04-14T07:49:37.040Z,24.51
2023-04-14T07:50:36.902Z,24.61
2023-04-14T07:51:37.114Z,24.61
2023-04-14T07:52:36.946Z,24.58
2023-04-14T07:53:37.080Z,24.61
2023-04-14T07:54:36.848Z,24.67
2023-04-14T07:55:37.016Z,24.70
2023-04-14T07:56:37.131Z,24.71
2023-04-14T07:57:37.044Z,24.75
2023-04-14T07:58:36.959Z,24.78
2023-04-14T07:59:36.858Z,24.78
2023-04-14T08:00:36.997Z,24.75
2023-04-14T08:01:36.933Z,24.80
2023-04-14T08:02:37.027Z,24.85
2023-04-14T08:03:37.018Z,24.80
2023-04-14T08:04:36.875Z,24.90
2023-04-14T08:05:36.995Z,24.87
2023-04-14T08:06:36.855Z,24.92
2023-04-14T08:07:36.859Z,24.90
2023-04-14T08:08:36.907Z,24.97
2023-04-14T08:09:36.828Z,24.89
2023-04-14T08:10:36.910Z,24.96
2023-04-14T08:11:36.921Z,25.00
2023-04-14T08:12:36.850Z,25.05
2023-04-14T08:13:36.855Z,25.01
2023-04-14T08:14:36.849Z,25.07
2023-04-14T08:15:36.851Z,25.01
2023-04-14T08:16:37.308Z,25.08
2023-04-14T08:17:36.879Z,25.04
2023-04-14T08:18:36.863Z,25.09
2023-04-14T08:19:36.848Z,25.12
2023-04-14T08:20:36.878Z,25.12
2023-04-14T08:21:36.856Z,25.08
2023-04-14T08:22:36.814Z,25.15
2023-04-14T08:23:36.868Z,25.20
2023-04-14T08:24:37.906Z,25.17
2023-04-14T08:25:36.804Z,25.14
2023-04-14T08:26:36.830Z,25.20
2023-04-14T08:27:36.912Z,25.22
2023-04-14T08:28:36.928Z,25.22
2023-04-14T08:29:36.824Z,25.26
2023-04-14T08:30:36.812Z,25.23
2023-04-14T08:31:36.907Z,25.20
2023-04-14T08:32:36.908Z,25.20
2023-04-14T08:33:36.975Z,25.24
2023-04-14T08:34:36.870Z,25.23
2023-04-14T08:35:41.606Z,25.23
2023-04-14T08:36:36.862Z,25.26
2023-04-14T08:37:36.797Z,25.29
2023-04-14T08:38:37.001Z,25.29
2023-04-14T08:39:36.795Z,25.30
2023-04-14T08:40:37.925Z,25.30
2023-04-14T08:41:36.868Z,25.24
2023-04-14T08:42:36.853Z,25.33
2023-04-14T08:43:36.949Z,25.38
2023-04-14T08:44:36.849Z,25.32
2023-04-14T08:45:36.895Z,25.33
2023-04-14T08:46:36.848Z,25.34
2023-04-14T08:47:37.005Z,25.32
2023-04-14T08:48:36.872Z,25.37
2023-04-14T08:49:36.795Z,25.30
2023-04-14T08:50:36.806Z,25.38
2023-04-14T08:51:36.826Z,25.34
2023-04-14T08:52:36.834Z,25.32
2023-04-14T08:53:36.801Z,25.37
2023-04-14T08:54:36.791Z,25.29
2023-04-14T08:55:36.808Z,25.44
2023-04-14T08:56:36.818Z,25.37
2023-04-14T08:57:36.782Z,25.34
2023-04-14T08:58:36.823Z,25.42
2023-04-14T08:59:36.869Z,25.37
2023-04-14T09:00:36.785Z,25.48
2023-04-14T09:01:36.854Z,25.39
2023-04-14T09:02:36.885Z,25.48
2023-04-14T09:03:37.002Z,25.41
2023-04-14T09:04:36.937Z,25.44
2023-04-14T09:05:36.790Z,25.45
2023-04-14T09:06:36.827Z,25.51
2023-04-14T09:07:36.850Z,25.52
2023-04-14T09:08:36.808Z,25.56
2023-04-14T09:09:36.810Z,25.56
2023-04-14T09:10:36.857Z,25.60
2023-04-14T09:11:36.787Z,25.60
2023-04-14T09:12:38.169Z,25.56
2023-04-14T09:15:09.338Z,25.54
2023-04-14T09:16:09.304Z,25.63
2023-04-14T09:17:09.365Z,25.59
2023-04-14T09:18:09.833Z,25.56
2023-04-14T09:19:10.148Z,25.67
2023-04-14T09:20:35.654Z,25.63
2023-04-14T09:21:37.163Z,25.67
2023-04-14T09:22:09.361Z,25.74
2023-04-14T09:23:09.667Z,25.69
2023-04-14T09:24:11.014Z,25.82
2023-04-14T09:25:09.393Z,25.71
2023-04-14T09:26:09.390Z,25.74
2023-04-14T09:27:09.409Z,25.74
2023-04-14T09:28:09.318Z,25.82
2023-04-14T09:29:09.384Z,25.78
2023-04-14T09:30:09.346Z,25.79
2023-04-14T09:31:09.334Z,25.74
2023-04-14T09:32:09.440Z,25.82
2023-04-14T09:33:09.604Z,25.89
2023-04-14T09:34:09.789Z,25.85
2023-04-14T09:35:09.340Z,25.86
2023-04-14T09:36:09.383Z,25.88
2023-04-14T09:37:09.470Z,25.85
2023-04-14T09:38:09.540Z,25.88
2023-04-14T09:39:09.376Z,25.89
2023-04-14T09:40:09.351Z,25.91
2023-04-14T09:41:09.306Z,25.94
2023-04-14T09:42:09.399Z,25.96
2023-04-14T09:43:09.330Z,25.99
2023-04-14T09:44:09.345Z,26.03
2023-04-14T09:45:09.321Z,25.97
2023-04-14T09:46:09.407Z,25.99
2023-04-14T09:47:09.337Z,26.03
2023-04-14T09:48:09.429Z,26.00
2023-04-14T09:49:09.361Z,26.06
2023-04-14T09:50:09.308Z,26.03
2023-04-14T09:51:09.324Z,26.12
2023-04-14T09:52:09.353Z,26.11
2023-04-14T09:53:09.329Z,26.11
2023-04-14T09:54:09.331Z,26.11
2023-04-14T09:55:09.312Z,26.20
2023-04-14T09:56:09.309Z,26.12
2023-04-14T09:57:09.301Z,26.17
2023-04-14T09:58:09.318Z,26.23
2023-04-14T09:59:09.324Z,26.19
2023-04-14T10:00:09.335Z,26.34
2023-04-14T10:01:09.336Z,26.23
2023-04-14T10:02:09.431Z,26.24
2023-04-14T10:13:29.540Z,26.38
2023-04-14T10:14:29.511Z,26.50
2023-04-14T10:15:29.500Z,26.49
2023-04-14T10:16:29.878Z,26.54
2023-04-14T10:17:30.337Z,26.61
2023-04-14T10:18:29.524Z,26.60
2023-04-14T10:19:29.495Z,26.61
2023-04-14T10:20:29.492Z,26.64
2023-04-14T10:21:29.515Z,26.64
2023-04-14T10:22:29.501Z,26.71
2023-04-14T10:23:29.535Z,26.64
2023-04-14T10:24:30.285Z,26.79
2023-04-14T10:25:29.501Z,26.82
2023-04-14T10:26:29.522Z,26.78
2023-04-14T10:27:30.312Z,26.87
2023-04-14T10:28:29.491Z,26.82
2023-04-14T10:29:29.549Z,27.00
2023-04-14T10:30:29.502Z,26.97
2023-04-14T10:31:29.593Z,27.04
2023-04-14T10:33:29.513Z,27.04
2023-04-14T10:34:29.535Z,27.11
2023-04-14T10:35:29.567Z,27.21
2023-04-14T10:36:29.495Z,27.21
2023-04-14T10:37:29.504Z,27.24
2023-04-14T10:38:30.248Z,27.31
2023-04-14T10:39:29.545Z,27.36
2023-04-14T10:40:29.550Z,27.36
2023-04-14T10:41:29.524Z,27.38
2023-04-14T10:42:29.543Z,27.51
2023-04-14T10:43:29.530Z,27.51
2023-04-14T10:44:29.672Z,27.48
2023-04-14T10:45:29.575Z,27.61
2023-04-14T10:46:29.574Z,27.65
2023-04-14T10:47:29.640Z,27.55
2023-04-14T10:48:29.589Z,27.69
2023-04-14T10:49:29.591Z,27.69
2023-04-14T10:50:29.548Z,27.75
2023-04-14T10:51:29.575Z,27.87
2023-04-14T10:52:29.530Z,27.84
2023-04-14T10:53:29.571Z,27.94
2023-04-14T10:54:29.554Z,27.99
2023-04-14T10:55:29.577Z,28.03
2023-04-14T10:56:29.554Z,28.03
2023-04-14T10:57:29.697Z,28.12
2023-04-14T10:58:29.612Z,28.18
2023-04-14T10:59:29.544Z,28.35
2023-04-14T11:00:29.550Z,28.28
2023-04-14T11:01:29.677Z,28.31
2023-04-14T11:02:29.885Z,28.36
2023-04-14T11:03:29.700Z,28.43
2023-04-14T11:04:29.800Z,28.45
2023-04-14T11:05:29.660Z,28.53
2023-04-14T11:06:29.685Z,28.58
2023-04-14T11:07:29.656Z,28.65
2023-04-14T11:08:29.587Z,28.67
2023-04-14T11:09:29.706Z,28.72
2023-04-14T11:10:29.608Z,28.85
2023-04-14T11:11:29.601Z,28.80
2023-04-14T11:12:29.678Z,29.01
2023-04-14T11:13:29.725Z,28.86
2023-04-14T11:14:29.618Z,29.01
2023-04-14T11:15:29.630Z,28.98
2023-04-14T11:16:29.713Z,29.03
2023-04-14T11:17:29.687Z,29.08
2023-04-14T11:18:29.680Z,29.20
2023-04-14T11:19:29.652Z,29.17
2023-04-14T11:20:29.671Z,29.21
2023-04-14T11:21:29.707Z,29.28
2023-04-14T11:22:30.281Z,29.39
2023-04-14T11:23:29.664Z,29.48
2023-04-14T11:24:29.633Z,29.48
2023-04-14T11:25:29.660Z,29.58
2023-04-14T11:26:29.689Z,29.57
2023-04-14T11:27:29.642Z,29.63
2023-04-14T11:28:29.649Z,29.73
2023-04-14T11:29:29.629Z,29.77
2023-04-14T11:30:29.680Z,29.87
2023-04-14T11:31:29.710Z,29.88
2023-04-14T11:32:29.655Z,30.00
2023-04-14T11:33:29.760Z,30.03
2023-04-14T11:34:30.286Z,30.10
2023-04-14T11:35:29.667Z,30.10
2023-04-14T11:36:29.677Z,30.21
2023-04-14T11:37:29.735Z,30.21
2023-04-14T11:38:29.698Z,30.19
2023-04-14T11:39:29.703Z,30.37
2023-04-14T11:40:29.724Z,30.40
2023-04-14T11:41:29.687Z,30.42
2023-04-14T11:42:29.679Z,30.45
2023-04-14T11:43:29.730Z,30.40
2023-04-14T11:44:29.716Z,30.48
2023-04-14T11:45:29.692Z,30.54
2023-04-14T11:46:29.778Z,30.54
2023-04-14T11:47:29.739Z,30.48
2023-04-14T11:48:29.704Z,30.44
2023-04-14T11:49:29.777Z,30.40
2023-04-14T11:50:29.712Z,30.49
2023-04-14T11:51:29.716Z,30.54
2023-04-14T11:52:29.734Z,30.64
2023-04-14T11:53:29.805Z,30.73
2023-04-14T11:54:29.897Z,30.81
2023-04-14T11:55:29.753Z,30.85
2023-04-14T11:56:29.751Z,30.86
2023-04-14T11:57:29.752Z,30.91
2023-04-14T11:58:29.771Z,30.89
2023-04-14T11:59:29.809Z,30.82
2023-04-14T12:00:29.772Z,30.78
2023-04-14T12:01:29.788Z,30.75
2023-04-14T12:02:29.867Z,30.64
2023-04-14T12:03:30.491Z,30.59
2023-04-14T12:04:30.045Z,30.48
2023-04-14T12:05:29.962Z,30.47
2023-04-14T12:06:29.851Z,30.44
2023-04-14T12:07:29.788Z,30.51
2023-04-14T12:08:29.803Z,30.49
2023-04-14T12:09:29.804Z,30.51
2023-04-14T12:10:29.806Z,30.49
2023-04-14T12:11:29.796Z,30.57
2023-04-14T12:12:29.804Z,30.70
2023-04-14T12:13:29.832Z,30.82
2023-04-14T12:14:29.824Z,30.84
2023-04-14T12:15:29.826Z,30.99
2023-04-14T12:16:29.897Z,31.15
2023-04-14T12:17:29.888Z,31.16
2023-04-14T12:18:29.836Z,31.36
2023-04-14T12:19:29.850Z,31.43
2023-04-14T12:20:29.880Z,31.52
2023-04-14T12:21:29.887Z,31.37
2023-04-14T12:22:29.836Z,31.22
2023-04-14T12:23:29.882Z,31.04
2023-04-14T12:24:29.916Z,30.99
2023-04-14T12:25:29.840Z,30.93
2023-04-14T12:26:29.860Z,30.96
2023-04-14T12:27:29.876Z,30.77
2023-04-14T12:28:29.893Z,30.69
2023-04-14T12:29:29.874Z,30.69
2023-04-14T12:30:29.887Z,30.84
2023-04-14T12:31:30.074Z,30.79
2023-04-14T12:32:29.942Z,30.78
2023-04-14T12:33:29.903Z,30.67
2023-04-14T12:34:29.882Z,30.59
2023-04-14T12:35:29.929Z,30.57
2023-04-14T12:36:45.319Z,30.59
2023-04-14T12:37:29.902Z,30.89
2023-04-14T12:38:29.960Z,31.04
2023-04-14T12:39:29.917Z,31.28
2023-04-14T12:40:29.948Z,31.49
2023-04-14T12:41:29.908Z,31.63
2023-04-14T12:42:29.931Z,31.90
2023-04-14T12:43:29.934Z,32.16
2023-04-14T12:44:29.975Z,32.17
2023-04-14T12:45:30.282Z,32.34
2023-04-14T12:46:29.961Z,32.45
2023-04-14T12:47:29.952Z,32.69
2023-04-14T12:48:29.958Z,32.76
2023-04-14T12:49:29.945Z,32.80
2023-04-14T12:50:29.934Z,32.96
2023-04-14T12:51:29.951Z,33.02
2023-04-14T12:52:29.945Z,32.98
2023-04-14T12:53:29.970Z,33.20
2023-04-14T12:54:29.962Z,33.29
2023-04-14T12:55:30.027Z,33.47
2023-04-14T12:56:29.998Z,33.55
2023-04-14T12:57:29.981Z,33.66
2023-04-14T12:58:29.995Z,33.81
2023-04-14T12:59:30.028Z,33.93
2023-04-14T13:00:30.048Z,33.97
2023-04-14T13:04:02.649Z,34.29
2023-04-14T13:05:02.576Z,34.34
2023-04-14T13:06:02.567Z,34.52
2023-04-14T13:07:02.598Z,34.54
2023-04-14T13:08:02.589Z,34.69
2023-04-14T13:09:02.832Z,34.75
2023-04-14T13:10:02.612Z,34.89
2023-04-14T13:11:02.596Z,34.86
2023-04-14T13:12:02.579Z,34.93
2023-04-14T13:13:02.590Z,34.99
2023-04-14T13:14:02.622Z,35.16
2023-04-14T13:15:02.602Z,35.23
2023-04-14T13:16:13.138Z,35.33
2023-04-14T13:17:02.644Z,35.40
2023-04-14T13:18:02.661Z,35.40
2023-04-14T13:19:02.895Z,35.49
2023-04-14T13:20:02.663Z,35.61
2023-04-14T13:21:02.637Z,35.65
2023-04-14T13:22:02.682Z,35.72
2023-04-14T13:23:02.663Z,35.79
2023-04-14T13:24:02.688Z,35.87
2023-04-14T13:25:02.675Z,35.87
2023-04-14T13:26:02.684Z,36.01
2023-04-14T13:27:02.707Z,36.01
2023-04-14T13:28:02.701Z,36.01
2023-04-14T13:29:03.134Z,36.08
2023-04-14T13:30:02.721Z,35.96
2023-04-14T13:31:02.721Z,35.61
2023-04-14T13:32:02.772Z,35.40
2023-04-14T13:33:02.835Z,35.30
2023-04-14T13:34:02.750Z,35.34
2023-04-14T13:35:02.782Z,35.52
2023-04-14T13:36:03.036Z,35.67
2023-04-14T13:37:02.815Z,35.71
2023-04-14T13:38:02.775Z,35.79
2023-04-14T13:39:03.018Z,35.79
2023-04-14T13:40:02.789Z,35.89
2023-04-14T13:41:02.820Z,36.05
2023-04-14T13:42:02.828Z,36.08
2023-04-14T13:43:02.830Z,35.96
2023-04-14T13:44:02.816Z,36.05
2023-04-14T13:45:02.818Z,36.09
2023-04-14T13:46:02.894Z,36.05
2023-04-14T13:47:02.884Z,36.14
2023-04-14T13:48:02.922Z,36.22
2023-04-14T13:49:03.225Z,36.24
2023-04-14T13:50:02.867Z,36.32
2023-04-14T13:51:02.874Z,36.24
2023-04-14T13:52:02.938Z,36.37
2023-04-14T13:53:02.884Z,36.34
2023-04-14T13:54:02.915Z,36.40
2023-04-14T13:55:02.889Z,36.12
2023-04-14T13:56:02.954Z,35.79
2023-04-14T13:57:02.940Z,35.61
2023-04-14T13:58:02.942Z,35.38
2023-04-14T13:59:03.037Z,35.16
2023-04-14T14:00:02.958Z,34.93
2023-04-14T14:01:02.959Z,34.72
2023-04-14T14:02:03.098Z,34.51
2023-04-14T14:03:03.120Z,34.30
2023-04-14T14:04:03.275Z,34.37
2023-04-14T14:05:02.995Z,34.54
2023-04-14T14:06:03.005Z,34.79
2023-04-14T14:07:03.007Z,34.79
2023-04-14T14:08:02.989Z,34.89
2023-04-14T14:09:05.659Z,34.97
2023-04-14T14:10:02.996Z,34.96
2023-04-14T14:11:03.012Z,35.08
2023-04-14T14:12:03.028Z,35.18
2023-04-14T14:13:03.045Z,35.23
2023-04-14T14:14:03.277Z,35.34
2023-04-14T14:15:03.118Z,35.46
2023-04-14T14:16:03.054Z,35.52
2023-04-14T14:17:03.059Z,35.57
2023-04-14T14:18:03.155Z,35.61
2023-04-14T14:19:03.306Z,35.68
2023-04-14T14:20:03.104Z,35.72
2023-04-14T14:21:03.097Z,35.71
2023-04-14T14:22:03.073Z,35.76
2023-04-14T14:23:03.120Z,35.86
2023-04-14T14:24:03.436Z,35.89
2023-04-14T14:25:17.411Z,35.95
2023-04-14T14:26:03.121Z,36.04
2023-04-14T14:27:03.124Z,36.05
2023-04-14T14:28:03.153Z,36.01
2023-04-14T14:29:03.189Z,36.08
2023-04-14T14:30:03.145Z,36.14
2023-04-14T14:31:04.960Z,36.15
2023-04-14T14:32:03.159Z,36.19
2023-04-14T14:33:03.248Z,36.22
2023-04-14T14:34:03.503Z,36.18
2023-04-14T14:35:03.227Z,36.21
2023-04-14T14:36:03.191Z,36.02
2023-04-14T14:37:03.203Z,35.79
2023-04-14T14:38:03.252Z,35.57
2023-04-14T14:39:03.253Z,35.30
2023-04-14T14:40:03.276Z,35.02
2023-04-14T14:41:03.277Z,34.89
2023-04-14T14:42:03.242Z,34.67
2023-04-14T14:43:03.272Z,34.41
2023-04-14T14:44:03.599Z,34.17
2023-04-14T14:45:03.306Z,33.97
2023-04-14T14:46:03.404Z,33.68
2023-04-14T14:47:03.499Z,33.47
2023-04-14T14:48:03.309Z,33.23
2023-04-14T14:49:03.343Z,33.05
2023-04-14T14:50:05.934Z,32.76
2023-04-14T14:51:03.306Z,32.67
2023-04-14T14:52:03.300Z,32.39
2023-04-14T14:53:03.279Z,32.20
2023-04-14T14:54:09.823Z,32.12
2023-04-14T14:55:03.261Z,31.86
2023-04-14T14:56:03.306Z,31.65
2023-04-14T14:57:03.282Z,31.45
2023-04-14T14:58:03.310Z,31.30
2023-04-14T14:59:03.291Z,31.18
2023-04-14T15:00:03.330Z,31.04
2023-04-14T15:01:03.285Z,30.86
2023-04-14T15:02:03.347Z,30.75
2023-04-14T15:03:03.333Z,30.62
2023-04-14T15:04:03.512Z,30.54
2023-04-14T15:05:03.291Z,30.31
2023-04-14T15:06:03.296Z,30.18
2023-04-14T15:07:03.353Z,30.04
2023-04-14T15:08:24.304Z,29.91
2023-04-14T15:09:03.309Z,29.76
2023-04-14T15:10:03.332Z,29.61
2023-04-14T15:11:03.339Z,29.60
2023-04-14T15:12:03.319Z,29.43
2023-04-14T15:13:03.362Z,29.24
2023-04-14T15:14:03.793Z,29.20
2023-04-14T15:15:03.356Z,29.06
2023-04-14T15:16:03.382Z,28.98
2023-04-14T15:17:03.396Z,28.97
2023-04-14T15:18:03.417Z,28.97
2023-04-14T15:19:03.389Z,29.10
2023-04-14T15:20:03.392Z,29.23
2023-04-14T15:21:03.387Z,29.15
2023-04-14T15:22:03.368Z,29.02
2023-04-14T15:23:03.421Z,28.88
2023-04-14T15:24:03.813Z,28.92
2023-04-14T15:25:03.379Z,28.92
2023-04-14T15:26:03.408Z,28.80
2023-04-14T15:27:03.402Z,28.79
2023-04-14T15:28:03.402Z,28.53
2023-04-14T15:29:03.413Z,28.60
2023-04-14T15:30:03.425Z,28.58
2023-04-14T15:31:03.428Z,28.51
2023-04-14T15:32:03.457Z,28.41
2023-04-14T15:33:03.553Z,28.38
2023-04-14T15:34:03.712Z,28.27
2023-04-14T15:35:03.418Z,28.23
2023-04-14T15:36:03.443Z,28.21
2023-04-14T15:37:03.439Z,28.17
2023-04-14T15:38:03.426Z,27.99
2023-04-14T15:39:03.461Z,27.96
2023-04-14T15:40:03.443Z,27.94
2023-04-14T15:41:04.477Z,27.87
2023-04-14T15:42:03.456Z,27.89
2023-04-14T15:43:03.441Z,27.79
2023-04-14T15:44:03.719Z,27.74
2023-04-14T15:45:03.455Z,27.68
2023-04-14T15:46:03.473Z,27.57
2023-04-14T15:47:03.448Z,27.59
2023-04-14T15:48:03.521Z,27.51
2023-04-14T15:49:03.465Z,27.41
2023-04-14T15:50:09.861Z,27.43
2023-04-14T15:51:03.432Z,27.30
2023-04-14T15:52:03.450Z,27.30
2023-04-14T15:53:03.507Z,27.26
2023-04-14T15:54:03.891Z,27.16
2023-04-14T15:55:03.453Z,27.08
2023-04-14T15:56:03.444Z,27.04
2023-04-14T15:57:03.444Z,26.96
2023-04-14T15:58:03.434Z,26.87
2023-04-14T15:59:03.467Z,26.89
2023-04-14T16:00:03.506Z,26.81
2023-04-14T16:01:03.498Z,26.69
2023-04-14T16:12:38.102Z,25.99
2023-04-14T16:13:38.057Z,26.01
2023-04-14T16:14:38.024Z,25.85
2023-04-14T16:15:38.097Z,25.81
2023-04-14T16:16:38.044Z,25.79
2023-04-14T16:17:38.176Z,25.70
2023-04-14T16:18:38.011Z,25.70
2023-04-14T16:19:38.009Z,25.60
2023-04-14T16:20:38.021Z,25.60
2023-04-14T16:21:38.013Z,25.59
2023-04-14T16:22:38.007Z,25.45
2023-04-14T16:23:38.080Z,25.47
2023-04-14T16:24:38.015Z,25.38
2023-04-14T16:25:38.005Z,25.37
2023-04-14T16:26:38.022Z,25.33
2023-04-14T16:27:38.004Z,25.24
2023-04-14T16:28:38.027Z,25.22
2023-04-14T16:29:38.030Z,25.11
2023-04-14T16:30:38.392Z,25.05
2023-04-14T16:31:38.033Z,25.11
2023-04-14T16:32:38.089Z,25.09
2023-04-14T16:33:38.014Z,25.05
2023-04-14T16:34:37.997Z,24.93
2023-04-14T16:35:37.999Z,24.93
2023-04-14T16:36:39.263Z,24.87
2023-04-14T16:37:38.038Z,24.75
2023-04-14T16:38:38.011Z,24.83
2023-04-14T16:39:38.012Z,24.70
2023-04-14T16:40:38.021Z,24.70
2023-04-14T16:41:38.044Z,24.75
2023-04-14T16:42:38.019Z,24.66
2023-04-14T16:43:38.021Z,24.66
2023-04-14T16:44:38.025Z,24.59
2023-04-14T16:45:38.031Z,24.51
2023-04-14T16:46:38.032Z,24.42
2023-04-14T16:47:38.060Z,24.54
2023-04-14T16:48:37.997Z,24.42
2023-04-14T16:49:37.995Z,24.39
2023-04-14T16:50:38.005Z,24.33
2023-04-14T16:51:37.998Z,24.32
2023-04-14T16:52:38.014Z,24.30
2023-04-14T16:53:37.970Z,24.26
2023-04-14T16:54:37.991Z,24.22
2023-04-14T16:55:37.980Z,24.12
2023-04-14T16:56:38.170Z,24.21
2023-04-14T16:57:37.985Z,24.15
2023-04-14T16:58:38.015Z,24.15
2023-04-14T16:59:37.956Z,24.08
2023-04-14T17:00:37.975Z,24.11
2023-04-14T17:01:38.259Z,24.02
2023-04-14T17:02:38.850Z,24.00
2023-04-14T17:03:38.122Z,23.99
2023-04-14T17:04:38.050Z,23.97
2023-04-14T17:05:38.167Z,23.93
2023-04-14T17:06:37.932Z,23.89
2023-04-14T17:07:38.014Z,23.84
2023-04-14T17:08:37.951Z,23.85
2023-04-14T17:09:38.683Z,23.82
2023-04-14T17:10:37.926Z,23.79
2023-04-14T17:11:37.920Z,23.75
2023-04-14T17:12:37.913Z,23.70
2023-04-14T17:13:37.999Z,23.67
2023-04-14T17:14:37.927Z,23.67
2023-04-14T17:15:37.908Z,23.66
2023-04-14T17:16:38.021Z,23.62
2023-04-14T17:17:37.949Z,23.57
2023-04-14T17:18:37.928Z,23.53
2023-04-14T17:19:37.906Z,23.48